createdAt,value
2023-09-05T00:00:43.819Z,1007.95
2023-09-05T00:01:43.833Z,1007.92
2023-09-05T00:02:43.840Z,1007.93
2023-09-05T00:03:43.825Z,1007.92
2023-09-05T00:04:43.774Z,1007.93
2023-09-05T00:05:43.789Z,1007.93
2023-09-05T00:06:43.763Z,1007.91
2023-09-05T00:07:43.746Z,1007.89
2023-09-05T00:08:43.728Z,1007.84
2023-09-05T00:09:43.709Z,1007.85
2023-09-05T00:10:43.687Z,1007.85
2023-09-05T00:11:43.669Z,1007.87
2023-09-05T00:12:43.688Z,1007.84
2023-09-05T00:13:43.673Z,1007.89
2023-09-05T00:14:43.644Z,1007.88
2023-09-05T00:15:43.621Z,1007.87
2023-09-05T00:16:43.720Z,1007.89
2023-09-05T00:17:43.652Z,1007.87
2023-09-05T00:18:43.578Z,1007.84
2023-09-05T00:19:43.573Z,1007.87
2023-09-05T00:20:43.597Z,1007.83
2023-09-05T00:21:43.539Z,1007.84
2023-09-05T00:22:43.550Z,1007.84
2023-09-05T00:23:43.530Z,1007.83
2023-09-05T00:24:43.522Z,1007.84
2023-09-05T00:25:43.479Z,1007.84
2023-09-05T00:26:43.505Z,1007.86
2023-09-05T00:27:43.501Z,1007.90
2023-09-05T00:28:43.460Z,1007.87
2023-09-05T00:29:43.432Z,1007.85
2023-09-05T00:30:43.445Z,1007.86
2023-09-05T00:31:43.469Z,1007.85
2023-09-05T00:32:43.469Z,1007.84
2023-09-05T00:33:43.413Z,1007.85
2023-09-05T00:34:43.374Z,1007.85
2023-09-05T00:35:43.348Z,1007.82
2023-09-05T00:36:43.516Z,1007.85
2023-09-05T00:37:43.412Z,1007.82
2023-09-05T00:38:43.319Z,1007.81
2023-09-05T00:39:43.300Z,1007.78
2023-09-05T00:40:43.296Z,1007.78
2023-09-05T00:41:43.279Z,1007.76
2023-09-05T00:42:43.265Z,1007.81
2023-09-05T00:43:43.237Z,1007.78
2023-09-05T00:44:43.250Z,1007.75
2023-09-05T00:45:43.254Z,1007.76
2023-09-05T00:46:43.224Z,1007.76
2023-09-05T00:47:43.221Z,1007.77
2023-09-05T00:48:43.171Z,1007.77
2023-09-05T00:49:43.159Z,1007.73
2023-09-05T00:50:43.154Z,1007.71
2023-09-05T00:51:43.152Z,1007.71
2023-09-05T00:52:43.126Z,1007.71
2023-09-05T00:53:43.105Z,1007.70
2023-09-05T00:54:43.108Z,1007.72
2023-09-05T00:55:43.081Z,1007.72
2023-09-05T00:56:43.096Z,1007.73
2023-09-05T00:57:43.049Z,1007.71
2023-09-05T00:58:43.046Z,1007.70
2023-09-05T00:59:43.022Z,1007.72
2023-09-05T01:00:43.016Z,1007.77
2023-09-05T01:01:43.063Z,1007.74
2023-09-05T01:02:43.160Z,1007.68
2023-09-05T01:03:42.971Z,1007.68
2023-09-05T01:04:43.017Z,1007.70
2023-09-05T01:05:43.022Z,1007.67
2023-09-05T01:06:42.949Z,1007.65
2023-09-05T01:07:42.919Z,1007.64
2023-09-05T01:08:42.904Z,1007.67
2023-09-05T01:09:42.898Z,1007.64
2023-09-05T01:10:42.906Z,1007.69
2023-09-05T01:11:42.859Z,1007.69
2023-09-05T01:12:42.857Z,1007.70
2023-09-05T01:13:42.874Z,1007.70
2023-09-05T01:14:42.823Z,1007.73
2023-09-05T01:15:42.852Z,1007.77
2023-09-05T01:16:42.801Z,1007.76
2023-09-05T01:17:42.802Z,1007.79
2023-09-05T01:18:42.776Z,1007.78
2023-09-05T01:19:42.771Z,1007.81
2023-09-05T01:20:42.770Z,1007.83
2023-09-05T01:21:42.715Z,1007.78
2023-09-05T01:22:42.779Z,1007.81
2023-09-05T01:23:42.695Z,1007.78
2023-09-05T01:24:42.701Z,1007.81
2023-09-05T01:25:42.671Z,1007.79
2023-09-05T01:26:42.697Z,1007.77
2023-09-05T01:27:42.641Z,1007.76
2023-09-05T01:28:42.653Z,1007.77
2023-09-05T01:29:42.634Z,1007.72
2023-09-05T01:30:42.594Z,1007.76
2023-09-05T01:31:42.584Z,1007.72
2023-09-05T01:32:42.589Z,1007.76
2023-09-05T01:33:42.562Z,1007.76
2023-09-05T01:34:42.554Z,1007.73
2023-09-05T01:35:42.535Z,1007.70
2023-09-05T01:36:42.512Z,1007.70
2023-09-05T01:37:42.504Z,1007.66
2023-09-05T01:38:42.491Z,1007.70
2023-09-05T01:39:42.473Z,1007.66
2023-09-05T01:40:42.454Z,1007.68
2023-09-05T01:41:42.447Z,1007.63
2023-09-05T01:42:42.436Z,1007.68
2023-09-05T01:43:42.440Z,1007.64
2023-09-05T01:44:42.414Z,1007.65
2023-09-05T01:45:42.417Z,1007.61
2023-09-05T01:46:42.423Z,1007.60
2023-09-05T01:47:42.408Z,1007.60
2023-09-05T01:48:42.403Z,1007.58
2023-09-05T01:49:42.361Z,1007.56
2023-09-05T01:50:42.344Z,1007.57
2023-09-05T01:51:42.331Z,1007.58
2023-09-05T01:52:42.338Z,1007.55
2023-09-05T01:53:42.313Z,1007.55
2023-09-05T01:54:42.314Z,1007.55
2023-09-05T01:55:42.277Z,1007.52
2023-09-05T01:56:42.257Z,1007.51
2023-09-05T01:57:42.260Z,1007.56
2023-09-05T01:58:42.243Z,1007.50
2023-09-05T01:59:42.217Z,1007.50
2023-09-05T02:00:42.244Z,1007.52
2023-09-05T02:01:42.313Z,1007.53
2023-09-05T02:02:42.179Z,1007.50
2023-09-05T02:03:42.168Z,1007.51
2023-09-05T02:04:42.159Z,1007.51
2023-09-05T02:05:42.166Z,1007.52
2023-09-05T02:06:42.130Z,1007.57
2023-09-05T02:07:42.127Z,1007.61
2023-09-05T02:08:42.100Z,1007.62
2023-09-05T02:09:42.103Z,1007.58
2023-09-05T02:10:42.088Z,1007.55
2023-09-05T02:11:42.065Z,1007.56
2023-09-05T02:12:42.049Z,1007.55
2023-09-05T02:13:42.036Z,1007.51
2023-09-05T02:14:42.038Z,1007.55
2023-09-05T02:15:42.031Z,1007.51
2023-09-05T02:16:42.077Z,1007.48
2023-09-05T02:17:41.992Z,1007.45
2023-09-05T02:18:41.962Z,1007.45
2023-09-05T02:19:41.968Z,1007.42
2023-09-05T02:20:41.971Z,1007.39
2023-09-05T02:21:41.989Z,1007.36
2023-09-05T02:22:41.912Z,1007.36
2023-09-05T02:23:41.901Z,1007.38
2023-09-05T02:24:41.907Z,1007.37
2023-09-05T02:25:41.876Z,1007.32
2023-09-05T02:26:41.863Z,1007.31
2023-09-05T02:27:41.843Z,1007.31
2023-09-05T02:28:41.864Z,1007.35
2023-09-05T02:29:41.855Z,1007.30
2023-09-05T02:30:41.891Z,1007.32
2023-09-05T02:31:41.792Z,1007.27
2023-09-05T02:32:41.825Z,1007.26
2023-09-05T02:33:41.783Z,1007.31
2023-09-05T02:34:41.752Z,1007.31
2023-09-05T02:35:41.743Z,1007.29
2023-09-05T02:36:41.727Z,1007.33
2023-09-05T02:37:41.716Z,1007.35
2023-09-05T02:38:41.713Z,1007.37
2023-09-05T02:39:41.682Z,1007.37
2023-09-05T02:40:41.676Z,1007.33
2023-09-05T02:41:41.681Z,1007.33
2023-09-05T02:42:41.660Z,1007.33
2023-09-05T02:43:41.664Z,1007.31
2023-09-05T02:44:41.628Z,1007.33
2023-09-05T02:45:41.614Z,1007.27
2023-09-05T02:46:41.593Z,1007.30
2023-09-05T02:47:41.671Z,1007.30
2023-09-05T02:48:41.575Z,1007.28
2023-09-05T02:49:41.549Z,1007.31
2023-09-05T02:50:41.542Z,1007.27
2023-09-05T02:51:41.515Z,1007.28
2023-09-05T02:52:47.476Z,1007.27
2023-09-05T02:53:42.485Z,1007.30
2023-09-05T02:54:41.483Z,1007.30
2023-09-05T02:55:41.460Z,1007.27
2023-09-05T02:56:41.449Z,1007.24
2023-09-05T02:57:41.455Z,1007.24
2023-09-05T02:58:41.439Z,1007.22
2023-09-05T02:59:41.425Z,1007.29
2023-09-05T03:00:41.404Z,1007.28
2023-09-05T03:01:41.435Z,1007.31
2023-09-05T03:02:41.656Z,1007.29
2023-09-05T03:03:41.404Z,1007.26
2023-09-05T03:04:41.349Z,1007.28
2023-09-05T03:05:41.330Z,1007.26
2023-09-05T03:06:41.345Z,1007.26
2023-09-05T03:07:41.334Z,1007.23
2023-09-05T03:08:41.291Z,1007.24
2023-09-05T03:09:41.274Z,1007.22
2023-09-05T03:10:41.270Z,1007.23
2023-09-05T03:11:41.270Z,1007.25
2023-09-05T03:12:41.240Z,1007.25
2023-09-05T03:13:41.255Z,1007.19
2023-09-05T03:15:38.859Z,1007.22
2023-09-05T03:16:38.862Z,1007.23
2023-09-05T03:17:39.119Z,1007.22
2023-09-05T03:18:38.800Z,1007.23
2023-09-05T03:19:38.787Z,1007.22
2023-09-05T03:20:38.848Z,1007.24
2023-09-05T03:21:38.787Z,1007.22
2023-09-05T03:22:38.758Z,1007.19
2023-09-05T03:23:38.739Z,1007.17
2023-09-05T03:24:38.730Z,1007.16
2023-09-05T03:25:38.718Z,1007.14
2023-09-05T03:26:38.720Z,1007.12
2023-09-05T03:27:38.691Z,1007.11
2023-09-05T03:28:38.682Z,1007.12
2023-09-05T03:29:38.660Z,1007.11
2023-09-05T03:30:38.668Z,1007.10
2023-09-05T03:31:38.668Z,1007.07
2023-09-05T03:32:38.629Z,1007.09
2023-09-05T03:33:38.635Z,1007.05
2023-09-05T03:34:38.605Z,1007.05
2023-09-05T03:35:38.620Z,1007.06
2023-09-05T03:36:38.570Z,1007.02
2023-09-05T03:37:38.555Z,1007.01
2023-09-05T03:38:38.562Z,1007.04
2023-09-05T03:39:38.546Z,1007.01
2023-09-05T03:40:38.543Z,1006.99
2023-09-05T03:41:38.513Z,1007.01
2023-09-05T03:42:38.488Z,1006.99
2023-09-05T03:43:38.475Z,1006.98
2023-09-05T03:44:38.483Z,1007.02
2023-09-05T03:45:38.508Z,1007.02
2023-09-05T03:46:38.442Z,1006.98
2023-09-05T03:47:50.463Z,1006.95
2023-09-05T03:48:39.477Z,1006.94
2023-09-05T03:49:38.444Z,1007.01
2023-09-05T03:50:38.392Z,1007.01
2023-09-05T03:51:38.372Z,1006.97
2023-09-05T03:52:38.357Z,1006.92
2023-09-05T03:53:38.672Z,1006.94
2023-09-05T03:54:38.352Z,1006.99
2023-09-05T03:55:38.315Z,1007.02
2023-09-05T03:56:38.321Z,1007.02
2023-09-05T03:57:38.285Z,1007.00
2023-09-05T03:58:38.299Z,1006.98
2023-09-05T03:59:38.262Z,1007.03
2023-09-05T04:00:38.259Z,1007.01
2023-09-05T04:01:38.260Z,1007.02
2023-09-05T04:02:38.285Z,1007.01
2023-09-05T04:03:38.341Z,1007.04
2023-09-05T04:04:38.194Z,1007.01
2023-09-05T04:05:38.187Z,1006.98
2023-09-05T04:06:38.168Z,1007.02
2023-09-05T04:07:39.480Z,1007.02
2023-09-05T04:08:38.156Z,1006.99
2023-09-05T04:09:38.126Z,1007.00
2023-09-05T04:10:38.163Z,1007.04
2023-09-05T04:11:38.106Z,1007.05
2023-09-05T04:12:38.116Z,1007.06
2023-09-05T04:13:38.090Z,1006.98
2023-09-05T04:14:38.064Z,1007.02
2023-09-05T04:15:38.079Z,1007.03
2023-09-05T04:16:38.057Z,1007.03
2023-09-05T04:17:38.064Z,1007.05
2023-09-05T04:18:38.030Z,1007.06
2023-09-05T04:19:37.995Z,1007.01
2023-09-05T04:20:38.051Z,1007.02
2023-09-05T04:21:37.993Z,1007.02
2023-09-05T04:22:37.986Z,1007.05
2023-09-05T04:23:37.935Z,1007.05
2023-09-05T04:24:37.922Z,1007.07
2023-09-05T04:25:37.919Z,1007.05
2023-09-05T04:26:37.925Z,1007.08
2023-09-05T04:27:37.887Z,1007.05
2023-09-05T04:28:37.896Z,1007.02
2023-09-05T04:29:37.868Z,1007.06
2023-09-05T04:30:37.861Z,1007.03
2023-09-05T04:31:37.899Z,1007.04
2023-09-05T04:32:37.841Z,1007.04
2023-09-05T04:33:37.856Z,1007.03
2023-09-05T04:34:37.805Z,1007.01
2023-09-05T04:35:37.803Z,1007.02
2023-09-05T04:36:37.789Z,1007.01
2023-09-05T04:37:37.754Z,1007.02
2023-09-05T04:38:37.752Z,1007.07
2023-09-05T04:39:37.725Z,1007.07
2023-09-05T04:40:37.741Z,1007.14
2023-09-05T04:41:37.707Z,1007.13
2023-09-05T04:42:37.692Z,1007.16
2023-09-05T04:43:37.675Z,1007.17
2023-09-05T04:44:37.680Z,1007.16
2023-09-05T04:45:37.651Z,1007.13
2023-09-05T04:46:37.682Z,1007.15
2023-09-05T04:47:37.630Z,1007.19
2023-09-05T04:48:37.624Z,1007.13
2023-09-05T04:49:37.599Z,1007.14
2023-09-05T04:50:37.599Z,1007.13
2023-09-05T04:51:37.567Z,1007.12
2023-09-05T04:52:37.561Z,1007.16
2023-09-05T04:53:37.535Z,1007.19
2023-09-05T04:54:37.539Z,1007.19
2023-09-05T04:55:37.516Z,1007.19
2023-09-05T04:56:37.513Z,1007.26
2023-09-05T04:57:37.497Z,1007.26
2023-09-05T04:58:37.478Z,1007.28
2023-09-05T04:59:37.468Z,1007.26
2023-09-05T05:00:37.467Z,1007.29
2023-09-05T05:01:37.451Z,1007.29
2023-09-05T05:02:37.521Z,1007.26
2023-09-05T05:03:37.469Z,1007.22
2023-09-05T05:04:37.421Z,1007.25
2023-09-05T05:05:37.382Z,1007.25
2023-09-05T05:06:37.388Z,1007.26
2023-09-05T05:07:37.351Z,1007.22
2023-09-05T05:08:37.354Z,1007.22
2023-09-05T05:09:37.346Z,1007.26
2023-09-05T05:10:37.317Z,1007.24
2023-09-05T05:11:37.292Z,1007.23
2023-09-05T05:12:37.307Z,1007.26
2023-09-05T05:13:37.282Z,1007.24
2023-09-05T05:14:37.283Z,1007.27
2023-09-05T05:15:37.256Z,1007.27
2023-09-05T05:16:37.253Z,1007.27
2023-09-05T05:17:37.250Z,1007.28
2023-09-05T05:18:37.222Z,1007.26
2023-09-05T05:19:37.218Z,1007.30
2023-09-05T05:20:37.188Z,1007.32
2023-09-05T05:21:37.168Z,1007.26
2023-09-05T05:22:37.162Z,1007.27
2023-09-05T05:23:37.150Z,1007.24
2023-09-05T05:24:37.159Z,1007.27
2023-09-05T05:25:37.107Z,1007.31
2023-09-05T05:26:37.107Z,1007.28
2023-09-05T05:27:37.083Z,1007.23
2023-09-05T05:28:37.094Z,1007.21
2023-09-05T05:29:37.071Z,1007.20
2023-09-05T05:30:37.050Z,1007.20
2023-09-05T05:31:37.050Z,1007.17
2023-09-05T05:32:37.080Z,1007.21
2023-09-05T05:33:37.025Z,1007.20
2023-09-05T05:34:37.057Z,1007.24
2023-09-05T05:35:36.985Z,1007.18
2023-09-05T05:36:36.972Z,1007.23
2023-09-05T05:37:36.975Z,1007.26
2023-09-05T05:38:36.954Z,1007.25
2023-09-05T05:39:36.923Z,1007.26
2023-09-05T05:40:36.925Z,1007.27
2023-09-05T05:41:36.922Z,1007.27
2023-09-05T05:42:36.930Z,1007.30
2023-09-05T05:43:36.873Z,1007.25
2023-09-05T05:44:36.862Z,1007.22
2023-09-05T05:45:36.844Z,1007.20
2023-09-05T05:46:36.900Z,1007.23
2023-09-05T05:47:36.832Z,1007.21
2023-09-05T05:48:36.811Z,1007.26
2023-09-05T05:49:36.799Z,1007.27
2023-09-05T05:50:36.791Z,1007.22
2023-09-05T05:51:36.791Z,1007.22
2023-09-05T05:52:36.787Z,1007.29
2023-09-05T05:53:36.764Z,1007.29
2023-09-05T05:54:36.734Z,1007.28
2023-09-05T05:55:36.709Z,1007.26
2023-09-05T05:56:36.728Z,1007.33
2023-09-05T05:57:36.684Z,1007.31
2023-09-05T05:58:36.675Z,1007.30
2023-09-05T05:59:36.658Z,1007.29
2023-09-05T06:00:36.681Z,1007.33
2023-09-05T06:01:36.674Z,1007.34
2023-09-05T06:02:36.652Z,1007.26
2023-09-05T06:03:36.727Z,1007.30
2023-09-05T06:04:36.709Z,1007.31
2023-09-05T06:05:36.594Z,1007.32
2023-09-05T06:06:36.585Z,1007.34
2023-09-05T06:07:36.553Z,1007.32
2023-09-05T06:08:36.565Z,1007.32
2023-09-05T06:09:36.522Z,1007.34
2023-09-05T06:10:36.533Z,1007.27
2023-09-05T06:11:36.509Z,1007.28
2023-09-05T06:12:36.485Z,1007.28
2023-09-05T06:13:36.498Z,1007.31
2023-09-05T06:14:36.472Z,1007.28
2023-09-05T06:15:36.458Z,1007.31
2023-09-05T06:16:36.496Z,1007.31
2023-09-05T06:17:36.444Z,1007.30
2023-09-05T06:18:36.413Z,1007.29
2023-09-05T06:19:36.418Z,1007.27
2023-09-05T06:20:36.396Z,1007.25
2023-09-05T06:21:36.369Z,1007.31
2023-09-05T06:22:36.357Z,1007.25
2023-09-05T06:23:36.391Z,1007.30
2023-09-05T06:24:36.356Z,1007.30
2023-09-05T06:25:36.321Z,1007.30
2023-09-05T06:26:36.304Z,1007.33
2023-09-05T06:27:36.286Z,1007.30
2023-09-05T06:28:36.283Z,1007.32
2023-09-05T06:29:36.284Z,1007.28
2023-09-05T06:30:36.259Z,1007.28
2023-09-05T06:31:36.298Z,1007.32
2023-09-05T06:32:36.224Z,1007.25
2023-09-05T06:33:36.226Z,1007.22
2023-09-05T06:34:36.217Z,1007.22
2023-09-05T06:35:36.187Z,1007.22
2023-09-05T06:36:37.354Z,1007.25
2023-09-05T06:37:36.162Z,1007.24
2023-09-05T06:38:36.195Z,1007.22
2023-09-05T06:39:36.138Z,1007.20
2023-09-05T06:40:36.146Z,1007.21
2023-09-05T06:41:36.129Z,1007.21
2023-09-05T06:42:36.087Z,1007.25
2023-09-05T06:43:36.121Z,1007.21
2023-09-05T06:44:36.069Z,1007.20
2023-09-05T06:45:36.055Z,1007.22
2023-09-05T06:46:36.039Z,1007.21
2023-09-05T06:47:36.070Z,1007.20
2023-09-05T06:48:36.024Z,1007.17
2023-09-05T06:49:36.002Z,1007.24
2023-09-05T06:50:35.995Z,1007.20
2023-09-05T06:51:35.981Z,1007.18
2023-09-05T06:52:35.985Z,1007.21
2023-09-05T06:53:35.951Z,1007.22
2023-09-05T06:54:35.926Z,1007.21
2023-09-05T06:55:36.105Z,1007.18
2023-09-05T06:56:35.908Z,1007.25
2023-09-05T06:57:35.906Z,1007.33
2023-09-05T06:58:35.874Z,1007.28
2023-09-05T06:59:35.871Z,1007.32
2023-09-05T07:00:35.853Z,1007.35
2023-09-05T07:01:35.886Z,1007.36
2023-09-05T07:02:35.847Z,1007.33
2023-09-05T07:03:35.811Z,1007.34
2023-09-05T07:04:35.821Z,1007.36
2023-09-05T07:05:35.788Z,1007.42
2023-09-05T07:06:35.781Z,1007.35
2023-09-05T07:07:35.754Z,1007.37
2023-09-05T07:08:35.742Z,1007.37
2023-09-05T07:09:35.729Z,1007.41
2023-09-05T07:10:35.716Z,1007.36
2023-09-05T07:11:35.709Z,1007.38
2023-09-05T07:12:35.690Z,1007.38
2023-09-05T07:13:35.674Z,1007.32
2023-09-05T07:14:35.663Z,1007.35
2023-09-05T07:15:35.668Z,1007.40
2023-09-05T07:16:35.658Z,1007.30
2023-09-05T07:17:35.721Z,1007.24
2023-09-05T07:18:35.597Z,1007.30
2023-09-05T07:19:35.594Z,1007.33
2023-09-05T07:20:35.594Z,1007.27
2023-09-05T07:21:35.578Z,1007.24
2023-09-05T07:22:35.556Z,1007.30
2023-09-05T07:23:35.564Z,1007.22
2023-09-05T07:24:35.521Z,1007.23
2023-09-05T07:25:35.553Z,1007.31
2023-09-05T07:26:35.505Z,1007.27
2023-09-05T07:27:35.503Z,1007.26
2023-09-05T07:28:35.486Z,1007.26
2023-09-05T07:29:35.493Z,1007.31
2023-09-05T07:30:35.521Z,1007.25
2023-09-05T07:31:35.515Z,1007.28
2023-09-05T07:32:35.454Z,1007.32
2023-09-05T07:33:35.416Z,1007.34
2023-09-05T07:34:35.432Z,1007.33
2023-09-05T07:35:35.402Z,1007.31
2023-09-05T07:36:35.372Z,1007.29
2023-09-05T07:37:35.366Z,1007.34
2023-09-05T07:38:35.348Z,1007.34
2023-09-05T07:39:35.356Z,1007.36
2023-09-05T07:40:35.324Z,1007.37
2023-09-05T07:41:35.322Z,1007.36
2023-09-05T07:42:35.296Z,1007.36
2023-09-05T07:43:35.289Z,1007.36
2023-09-05T07:44:35.294Z,1007.36
2023-09-05T07:45:35.277Z,1007.37
2023-09-05T07:46:35.261Z,1007.37
2023-09-05T07:47:35.297Z,1007.34
2023-09-05T07:48:35.221Z,1007.36
2023-09-05T07:49:35.225Z,1007.36
2023-09-05T07:50:35.193Z,1007.35
2023-09-05T07:51:35.197Z,1007.32
2023-09-05T07:52:35.169Z,1007.33
2023-09-05T07:53:35.165Z,1007.32
2023-09-05T07:54:35.195Z,1007.32
2023-09-05T07:55:35.131Z,1007.36
2023-09-05T07:56:35.116Z,1007.38
2023-09-05T07:57:35.099Z,1007.35
2023-09-05T07:58:35.108Z,1007.40
2023-09-05T07:59:35.076Z,1007.36
2023-09-05T08:00:35.073Z,1007.34
2023-09-05T08:01:35.092Z,1007.36
2023-09-05T08:02:35.062Z,1007.39
2023-09-05T08:03:35.106Z,1007.41
2023-09-05T08:04:35.011Z,1007.38
2023-09-05T08:05:35.002Z,1007.41
2023-09-05T08:06:34.988Z,1007.40
2023-09-05T08:07:34.978Z,1007.36
2023-09-05T08:08:34.979Z,1007.39
2023-09-05T08:09:34.952Z,1007.42
2023-09-05T08:10:34.927Z,1007.40
2023-09-05T08:11:34.921Z,1007.41
2023-09-05T08:12:34.923Z,1007.39
2023-09-05T08:13:34.915Z,1007.41
2023-09-05T08:14:34.870Z,1007.37
2023-09-05T08:15:34.886Z,1007.36
2023-09-05T08:16:34.853Z,1007.36
2023-09-05T08:17:34.857Z,1007.40
2023-09-05T08:18:34.889Z,1007.38
2023-09-05T08:19:34.823Z,1007.38
2023-09-05T08:20:34.801Z,1007.38
2023-09-05T08:21:34.791Z,1007.34
2023-09-05T08:22:34.785Z,1007.33
2023-09-05T08:23:34.763Z,1007.31
2023-09-05T08:24:34.759Z,1007.30
2023-09-05T08:25:34.758Z,1007.30
2023-09-05T08:26:34.736Z,1007.31
2023-09-05T08:27:34.745Z,1007.33
2023-09-05T08:28:34.712Z,1007.31
2023-09-05T08:29:34.688Z,1007.30
2023-09-05T08:30:34.675Z,1007.33
2023-09-05T08:31:34.707Z,1007.36
2023-09-05T08:32:34.768Z,1007.39
2023-09-05T08:33:34.678Z,1007.37
2023-09-05T08:34:34.623Z,1007.33
2023-09-05T08:35:34.610Z,1007.33
2023-09-05T08:36:34.605Z,1007.34
2023-09-05T08:37:34.579Z,1007.31
2023-09-05T08:38:34.572Z,1007.30
2023-09-05T08:39:34.559Z,1007.30
2023-09-05T08:40:34.550Z,1007.30
2023-09-05T08:41:34.556Z,1007.31
2023-09-05T08:42:34.505Z,1007.31
2023-09-05T08:43:34.501Z,1007.30
2023-09-05T08:44:34.486Z,1007.34
2023-09-05T08:45:34.494Z,1007.30
2023-09-05T08:46:34.553Z,1007.31
2023-09-05T08:47:34.488Z,1007.30
2023-09-05T08:48:51.915Z,1007.33
2023-09-05T08:49:35.420Z,1007.33
2023-09-05T08:50:34.427Z,1007.29
2023-09-05T08:51:34.405Z,1007.33
2023-09-05T08:52:34.387Z,1007.30
2023-09-05T08:53:34.372Z,1007.31
2023-09-05T08:54:34.396Z,1007.28
2023-09-05T08:55:34.358Z,1007.29
2023-09-05T08:56:34.325Z,1007.22
2023-09-05T08:57:34.317Z,1007.22
2023-09-05T08:58:34.313Z,1007.22
2023-09-05T08:59:34.316Z,1007.24
2023-09-05T09:00:34.325Z,1007.21
2023-09-05T09:01:35.255Z,1007.21
2023-09-05T09:02:34.343Z,1007.20
2023-09-05T09:03:34.266Z,1007.21
2023-09-05T09:04:34.240Z,1007.22
2023-09-05T09:05:34.213Z,1007.24
2023-09-05T09:06:34.192Z,1007.20
2023-09-05T09:07:34.198Z,1007.19
2023-09-05T09:08:34.183Z,1007.19
2023-09-05T09:09:34.164Z,1007.15
2023-09-05T09:10:34.139Z,1007.12
2023-09-05T09:11:34.132Z,1007.19
2023-09-05T09:12:34.109Z,1007.16
2023-09-05T09:13:34.111Z,1007.18
2023-09-05T09:14:34.113Z,1007.12
2023-09-05T09:15:34.079Z,1007.12
2023-09-05T09:16:34.119Z,1007.08
2023-09-05T09:17:34.069Z,1007.09
2023-09-05T09:18:34.060Z,1007.08
2023-09-05T09:19:34.109Z,1007.09
2023-09-05T09:20:34.011Z,1007.08
2023-09-05T09:21:34.226Z,1007.10
2023-09-05T09:22:33.997Z,1007.11
2023-09-05T09:23:33.981Z,1007.06
2023-09-05T09:24:33.959Z,1007.04
2023-09-05T09:25:33.937Z,1007.08
2023-09-05T09:26:33.934Z,1007.04
2023-09-05T09:27:33.929Z,1006.98
2023-09-05T09:28:33.910Z,1006.98
2023-09-05T09:29:33.889Z,1006.96
2023-09-05T09:30:33.893Z,1007.00
2023-09-05T09:31:33.858Z,1006.97
2023-09-05T09:32:33.870Z,1006.96
2023-09-05T09:33:33.926Z,1006.93
2023-09-05T09:34:33.827Z,1006.98
2023-09-05T09:35:33.801Z,1006.98
2023-09-05T09:36:33.793Z,1006.95
2023-09-05T09:37:33.805Z,1006.96
2023-09-05T09:38:33.774Z,1006.98
2023-09-05T09:39:33.957Z,1006.98
2023-09-05T09:40:33.723Z,1006.98
2023-09-05T09:41:33.741Z,1007.00
2023-09-05T09:42:33.713Z,1007.01
2023-09-05T09:43:33.699Z,1006.99
2023-09-05T09:44:33.714Z,1007.03
2023-09-05T09:45:33.678Z,1007.01
2023-09-05T09:46:33.678Z,1007.01
2023-09-05T09:47:33.716Z,1007.07
2023-09-05T09:48:33.640Z,1007.05
2023-09-05T09:49:33.627Z,1007.00
2023-09-05T09:50:33.600Z,1007.02
2023-09-05T09:51:33.615Z,1007.00
2023-09-05T09:52:33.567Z,1007.00
2023-09-05T09:53:33.565Z,1006.98
2023-09-05T09:54:33.690Z,1007.03
2023-09-05T09:55:33.547Z,1006.96
2023-09-05T09:56:33.544Z,1006.97
2023-09-05T09:57:41.888Z,1006.96
2023-09-05T09:58:34.498Z,1006.94
2023-09-05T09:59:33.484Z,1006.90
2023-09-05T10:00:33.497Z,1006.89
2023-09-05T10:01:33.535Z,1006.90
2023-09-05T10:02:33.470Z,1006.86
2023-09-05T10:03:33.557Z,1006.85
2023-09-05T10:04:33.414Z,1006.88
2023-09-05T10:05:33.417Z,1006.83
2023-09-05T10:06:33.383Z,1006.88
2023-09-05T10:07:33.399Z,1006.87
2023-09-05T10:08:33.373Z,1006.83
2023-09-05T10:09:33.358Z,1006.81
2023-09-05T10:10:33.355Z,1006.80
2023-09-05T10:11:33.329Z,1006.78
2023-09-05T10:12:33.305Z,1006.80
2023-09-05T10:13:33.317Z,1006.76
2023-09-05T10:14:33.275Z,1006.76
2023-09-05T10:15:33.288Z,1006.73
2023-09-05T10:16:33.326Z,1006.72
2023-09-05T10:17:33.279Z,1006.66
2023-09-05T10:18:33.244Z,1006.69
2023-09-05T10:19:33.237Z,1006.69
2023-09-05T10:20:33.209Z,1006.69
2023-09-05T10:21:33.197Z,1006.67
2023-09-05T10:22:33.180Z,1006.69
2023-09-05T10:23:33.168Z,1006.69
2023-09-05T10:24:33.167Z,1006.64
2023-09-05T10:25:33.149Z,1006.64
2023-09-05T10:26:33.247Z,1006.66
2023-09-05T10:27:33.138Z,1006.63
2023-09-05T10:28:33.116Z,1006.64
2023-09-05T10:29:33.096Z,1006.61
2023-09-05T10:30:33.076Z,1006.61
2023-09-05T10:31:33.088Z,1006.65
2023-09-05T10:32:33.049Z,1006.61
2023-09-05T10:33:33.027Z,1006.62
2023-09-05T10:34:33.034Z,1006.62
2023-09-05T10:35:33.023Z,1006.61
2023-09-05T10:36:32.979Z,1006.67
2023-09-05T10:37:32.978Z,1006.63
2023-09-05T10:38:33.009Z,1006.62
2023-09-05T10:39:32.959Z,1006.59
2023-09-05T10:40:32.942Z,1006.61
2023-09-05T10:41:32.929Z,1006.59
2023-09-05T10:42:32.901Z,1006.56
2023-09-05T10:43:32.928Z,1006.58
2023-09-05T10:44:32.897Z,1006.56
2023-09-05T10:45:32.866Z,1006.54
2023-09-05T10:46:32.859Z,1006.56
2023-09-05T10:47:32.859Z,1006.48
2023-09-05T10:48:32.853Z,1006.46
2023-09-05T10:49:32.817Z,1006.44
2023-09-05T10:50:32.821Z,1006.44
2023-09-05T10:51:32.790Z,1006.37
2023-09-05T10:52:32.794Z,1006.40
2023-09-05T10:53:32.771Z,1006.38
2023-09-05T10:54:32.765Z,1006.37
2023-09-05T10:55:32.731Z,1006.37
2023-09-05T10:56:32.732Z,1006.34
2023-09-05T10:57:32.802Z,1006.35
2023-09-05T10:58:32.733Z,1006.35
2023-09-05T10:59:32.687Z,1006.29
2023-09-05T11:00:32.674Z,1006.31
2023-09-05T11:01:32.727Z,1006.35
2023-09-05T11:02:32.668Z,1006.37
2023-09-05T11:03:32.645Z,1006.36
2023-09-05T11:04:32.652Z,1006.31
2023-09-05T11:05:32.594Z,1006.34
2023-09-05T11:06:32.629Z,1006.28
2023-09-05T11:07:32.607Z,1006.24
2023-09-05T11:08:32.598Z,1006.27
2023-09-05T11:09:32.551Z,1006.30
2023-09-05T11:10:32.544Z,1006.28
2023-09-05T11:11:32.560Z,1006.28
2023-09-05T11:12:32.516Z,1006.28
2023-09-05T11:13:32.505Z,1006.30
2023-09-05T11:14:32.495Z,1006.32
2023-09-05T11:15:32.553Z,1006.34
2023-09-05T11:16:32.591Z,1006.31
2023-09-05T11:17:32.464Z,1006.33
2023-09-05T11:18:32.443Z,1006.32
2023-09-05T11:19:32.420Z,1006.32
2023-09-05T11:20:32.413Z,1006.30
2023-09-05T11:21:32.405Z,1006.32
2023-09-05T11:22:32.382Z,1006.33
2023-09-05T11:23:32.372Z,1006.29
2023-09-05T11:24:32.365Z,1006.32
2023-09-05T11:25:32.347Z,1006.31
2023-09-05T11:26:32.353Z,1006.30
2023-09-05T11:27:32.322Z,1006.28
2023-09-05T11:28:33.561Z,1006.26
2023-09-05T11:29:32.290Z,1006.27
2023-09-05T11:30:32.292Z,1006.24
2023-09-05T11:31:32.368Z,1006.23
2023-09-05T11:32:32.264Z,1006.19
2023-09-05T11:33:32.245Z,1006.17
2023-09-05T11:34:32.226Z,1006.20
2023-09-05T11:35:32.254Z,1006.21
2023-09-05T11:36:32.210Z,1006.21
2023-09-05T11:37:32.199Z,1006.17
2023-09-05T11:38:32.185Z,1006.17
2023-09-05T11:39:32.219Z,1006.18
2023-09-05T11:40:32.171Z,1006.14
2023-09-05T11:41:32.159Z,1006.13
2023-09-05T11:42:32.288Z,1006.17
2023-09-05T11:43:32.121Z,1006.13
2023-09-05T11:44:32.139Z,1006.13
2023-09-05T11:45:32.086Z,1006.07
2023-09-05T11:46:32.103Z,1006.07
2023-09-05T11:47:32.064Z,1006.05
2023-09-05T11:48:32.107Z,1006.04
2023-09-05T11:49:32.049Z,1006.08
2023-09-05T11:50:32.023Z,1006.06
2023-09-05T11:51:32.069Z,1006.07
2023-09-05T11:52:32.001Z,1006.05
2023-09-05T11:53:31.992Z,1006.00
2023-09-05T11:54:31.996Z,1006.00
2023-09-05T11:55:31.960Z,1005.98
2023-09-05T11:56:31.947Z,1006.01
2023-09-05T11:57:31.939Z,1005.99
2023-09-05T11:58:31.951Z,1005.99
2023-09-05T11:59:31.911Z,1005.96
2023-09-05T12:00:31.887Z,1005.95
2023-09-05T12:01:31.918Z,1005.99
2023-09-05T12:02:31.875Z,1006.00
2023-09-05T12:03:31.928Z,1005.99
2023-09-05T12:04:31.877Z,1005.96
2023-09-05T12:05:31.827Z,1005.98
2023-09-05T12:06:31.819Z,1005.95